Columbine Valley, Colorado
Current Conditions -  °F | °C
As of 1:53 AM on Sunday 23 Nov 2014 (Local Time) from KAPA Reporting Station
Overcast Overcast  
Wind Chill: 38°   Ceiling: 7000
Heat Index: 43°   Visibility: 10mi
Dew Point: 25°   Wind: 9mph
Humidity: 49%   Direction: 30°NNE
Pressure: 29.6"   Gusts: NA
Location:  39.5977°N, 105.071°W
Report Text: KAPA 230853Z 03008KT 10SM SCT055 BKN070 OVC120 06/M04 A2960 RMK AO2 SLP991 T00611039 53007
Loading
Personal Weather Stations






























Interactive Weather Map New forecast layout! Learn more

10-Day Weather Forecast

Advertisements
Track Severe Weather on mobile